sensor_id;sensor_type;location;lat;lon;timestamp;P1;durP1;ratioP1;P2;durP2;ratioP2
35128;SDS011;21301;43.626;10.580;2023-06-14T00:00:51;11.32;;;3.22;;
35128;SDS011;21301;43.626;10.580;2023-06-14T00:03:18;8.13;;;3.22;;
35128;SDS011;21301;43.626;10.580;2023-06-14T00:05:47;6.70;;;2.33;;
35128;SDS011;21301;43.626;10.580;2023-06-14T00:08:13;4.93;;;2.25;;
35128;SDS011;21301;43.626;10.580;2023-06-14T00:10:40;9.02;;;2.97;;
35128;SDS011;21301;43.626;10.580;2023-06-14T00:13:10;6.85;;;2.70;;
35128;SDS011;21301;43.626;10.580;2023-06-14T00:15:37;7.70;;;2.92;;
35128;SDS011;21301;43.626;10.580;2023-06-14T00:18:03;5.85;;;2.60;;
35128;SDS011;21301;43.626;10.580;2023-06-14T00:20:30;5.60;;;2.47;;
35128;SDS011;21301;43.626;10.580;2023-06-14T00:23:01;8.68;;;3.05;;
35128;SDS011;21301;43.626;10.580;2023-06-14T00:25:27;5.88;;;2.75;;
35128;SDS011;21301;43.626;10.580;2023-06-14T00:27:53;9.10;;;2.83;;
35128;SDS011;21301;43.626;10.580;2023-06-14T00:30:20;10.48;;;2.92;;
35128;SDS011;21301;43.626;10.580;2023-06-14T00:32:46;10.65;;;2.63;;
35128;SDS011;21301;43.626;10.580;2023-06-14T00:35:12;9.13;;;3.95;;
35128;SDS011;21301;43.626;10.580;2023-06-14T00:37:39;20.35;;;3.45;;
35128;SDS011;21301;43.626;10.580;2023-06-14T00:40:05;8.80;;;3.40;;
35128;SDS011;21301;43.626;10.580;2023-06-14T00:42:31;7.25;;;2.38;;
35128;SDS011;21301;43.626;10.580;2023-06-14T00:44:58;7.32;;;2.70;;
35128;SDS011;21301;43.626;10.580;2023-06-14T00:47:24;7.47;;;2.70;;
35128;SDS011;21301;43.626;10.580;2023-06-14T00:49:52;12.25;;;2.63;;
35128;SDS011;21301;43.626;10.580;2023-06-14T00:52:19;10.27;;;2.65;;
35128;SDS011;21301;43.626;10.580;2023-06-14T00:54:45;5.80;;;2.25;;
35128;SDS011;21301;43.626;10.580;2023-06-14T00:57:11;12.35;;;3.03;;
35128;SDS011;21301;43.626;10.580;2023-06-14T00:59:46;8.55;;;2.88;;
35128;SDS011;21301;43.626;10.580;2023-06-14T01:02:13;10.13;;;3.83;;
35128;SDS011;21301;43.626;10.580;2023-06-14T01:04:43;10.20;;;5.05;;
35128;SDS011;21301;43.626;10.580;2023-06-14T01:13:12;8.15;;;2.92;;
35128;SDS011;21301;43.626;10.580;2023-06-14T01:15:43;9.30;;;3.40;;
35128;SDS011;21301;43.626;10.580;2023-06-14T01:18:10;7.30;;;3.72;;
35128;SDS011;21301;43.626;10.580;2023-06-14T01:20:42;10.10;;;3.65;;
35128;SDS011;21301;43.626;10.580;2023-06-14T01:23:10;8.07;;;4.15;;
35128;SDS011;21301;43.626;10.580;2023-06-14T01:25:37;11.30;;;4.32;;
35128;SDS011;21301;43.626;10.580;2023-06-14T01:28:05;24.25;;;5.25;;
35128;SDS011;21301;43.626;10.580;2023-06-14T01:30:37;11.03;;;4.47;;
35128;SDS011;21301;43.626;10.580;2023-06-14T01:33:13;9.80;;;5.32;;
35128;SDS011;21301;43.626;10.580;2023-06-14T01:35:42;7.60;;;3.75;;
35128;SDS011;21301;43.626;10.580;2023-06-14T01:38:09;8.00;;;4.43;;
35128;SDS011;21301;43.626;10.580;2023-06-14T01:40:35;10.50;;;5.45;;
35128;SDS011;21301;43.626;10.580;2023-06-14T01:43:02;14.00;;;5.88;;
35128;SDS011;21301;43.626;10.580;2023-06-14T01:45:29;21.05;;;6.10;;
35128;SDS011;21301;43.626;10.580;2023-06-14T01:47:56;8.25;;;4.93;;
35128;SDS011;21301;43.626;10.580;2023-06-14T01:50:22;12.15;;;5.35;;
35128;SDS011;21301;43.626;10.580;2023-06-14T01:52:48;13.00;;;4.25;;
35128;SDS011;21301;43.626;10.580;2023-06-14T01:55:14;22.60;;;5.80;;
35128;SDS011;21301;43.626;10.580;2023-06-14T01:57:42;7.57;;;3.78;;
35128;SDS011;21301;43.626;10.580;2023-06-14T02:00:09;8.68;;;3.95;;
35128;SDS011;21301;43.626;10.580;2023-06-14T02:02:40;14.30;;;4.22;;
35128;SDS011;21301;43.626;10.580;2023-06-14T02:05:06;8.40;;;4.13;;
35128;SDS011;21301;43.626;10.580;2023-06-14T02:07:32;14.60;;;6.18;;
35128;SDS011;21301;43.626;10.580;2023-06-14T02:09:58;14.57;;;6.82;;
35128;SDS011;21301;43.626;10.580;2023-06-14T02:12:24;13.65;;;5.45;;
35128;SDS011;21301;43.626;10.580;2023-06-14T02:14:50;12.73;;;5.65;;
35128;SDS011;21301;43.626;10.580;2023-06-14T02:17:16;11.82;;;6.53;;
35128;SDS011;21301;43.626;10.580;2023-06-14T02:19:42;14.75;;;6.97;;
35128;SDS011;21301;43.626;10.580;2023-06-14T02:22:08;17.17;;;8.85;;
35128;SDS011;21301;43.626;10.580;2023-06-14T02:24:34;14.10;;;7.88;;
35128;SDS011;21301;43.626;10.580;2023-06-14T02:27:01;9.77;;;5.07;;
35128;SDS011;21301;43.626;10.580;2023-06-14T02:29:27;11.38;;;3.75;;
35128;SDS011;21301;43.626;10.580;2023-06-14T02:31:53;11.60;;;3.92;;
35128;SDS011;21301;43.626;10.580;2023-06-14T02:34:20;10.82;;;3.55;;
35128;SDS011;21301;43.626;10.580;2023-06-14T02:36:47;7.00;;;3.67;;
35128;SDS011;21301;43.626;10.580;2023-06-14T02:39:13;6.63;;;3.20;;
35128;SDS011;21301;43.626;10.580;2023-06-14T02:41:39;10.82;;;3.95;;
35128;SDS011;21301;43.626;10.580;2023-06-14T02:44:05;8.18;;;3.97;;
35128;SDS011;21301;43.626;10.580;2023-06-14T02:46:31;10.20;;;4.30;;
35128;SDS011;21301;43.626;10.580;2023-06-14T02:48:57;12.90;;;6.13;;
35128;SDS011;21301;43.626;10.580;2023-06-14T02:51:23;17.83;;;6.25;;
35128;SDS011;21301;43.626;10.580;2023-06-14T02:53:49;14.18;;;5.50;;
35128;SDS011;21301;43.626;10.580;2023-06-14T02:56:15;10.50;;;4.95;;
35128;SDS011;21301;43.626;10.580;2023-06-14T02:58:43;9.60;;;4.82;;
35128;SDS011;21301;43.626;10.580;2023-06-14T03:01:09;7.18;;;4.68;;
35128;SDS011;21301;43.626;10.580;2023-06-14T03:03:39;10.77;;;4.97;;
35128;SDS011;21301;43.626;10.580;2023-06-14T03:06:05;12.50;;;5.22;;
35128;SDS011;21301;43.626;10.580;2023-06-14T03:08:35;16.75;;;5.97;;
35128;SDS011;21301;43.626;10.580;2023-06-14T03:11:08;8.53;;;4.60;;
35128;SDS011;21301;43.626;10.580;2023-06-14T03:13:35;7.82;;;5.22;;
35128;SDS011;21301;43.626;10.580;2023-06-14T03:16:02;9.02;;;5.05;;
35128;SDS011;21301;43.626;10.580;2023-06-14T03:18:31;10.40;;;5.50;;
35128;SDS011;21301;43.626;10.580;2023-06-14T03:21:01;8.52;;;4.97;;
35128;SDS011;21301;43.626;10.580;2023-06-14T03:23:28;11.38;;;5.68;;
35128;SDS011;21301;43.626;10.580;2023-06-14T03:25:54;14.25;;;5.72;;
35128;SDS011;21301;43.626;10.580;2023-06-14T03:28:21;15.30;;;5.15;;
35128;SDS011;21301;43.626;10.580;2023-06-14T03:30:47;20.63;;;6.22;;
35128;SDS011;21301;43.626;10.580;2023-06-14T03:33:13;9.98;;;5.32;;
35128;SDS011;21301;43.626;10.580;2023-06-14T03:35:41;14.15;;;6.28;;
35128;SDS011;21301;43.626;10.580;2023-06-14T03:38:08;14.40;;;4.82;;
35128;SDS011;21301;43.626;10.580;2023-06-14T03:40:34;11.70;;;5.68;;
35128;SDS011;21301;43.626;10.580;2023-06-14T03:43:02;10.88;;;6.22;;
35128;SDS011;21301;43.626;10.580;2023-06-14T03:45:28;18.38;;;6.13;;
35128;SDS011;21301;43.626;10.580;2023-06-14T03:47:55;10.68;;;5.63;;
35128;SDS011;21301;43.626;10.580;2023-06-14T03:50:22;9.13;;;5.35;;
35128;SDS011;21301;43.626;10.580;2023-06-14T03:52:49;11.85;;;5.25;;
35128;SDS011;21301;43.626;10.580;2023-06-14T03:55:16;13.95;;;5.28;;
35128;SDS011;21301;43.626;10.580;2023-06-14T03:57:42;11.63;;;5.38;;
35128;SDS011;21301;43.626;10.580;2023-06-14T04:00:11;16.42;;;5.00;;
35128;SDS011;21301;43.626;10.580;2023-06-14T04:02:40;13.32;;;5.57;;
35128;SDS011;21301;43.626;10.580;2023-06-14T04:05:08;9.27;;;5.15;;
35128;SDS011;21301;43.626;10.580;2023-06-14T04:07:36;9.52;;;5.75;;
35128;SDS011;21301;43.626;10.580;2023-06-14T04:10:07;10.38;;;5.55;;
35128;SDS011;21301;43.626;10.580;2023-06-14T04:12:33;14.93;;;5.43;;
35128;SDS011;21301;43.626;10.580;2023-06-14T04:14:59;11.98;;;4.95;;
35128;SDS011;21301;43.626;10.580;2023-06-14T04:17:28;7.03;;;3.13;;
35128;SDS011;21301;43.626;10.580;2023-06-14T04:19:54;6.30;;;1.80;;
35128;SDS011;21301;43.626;10.580;2023-06-14T04:22:19;5.97;;;3.17;;
35128;SDS011;21301;43.626;10.580;2023-06-14T04:24:45;9.15;;;2.38;;
35128;SDS011;21301;43.626;10.580;2023-06-14T04:27:11;6.40;;;2.30;;
35128;SDS011;21301;43.626;10.580;2023-06-14T04:29:38;8.68;;;2.53;;
35128;SDS011;21301;43.626;10.580;2023-06-14T04:32:09;5.70;;;2.10;;
35128;SDS011;21301;43.626;10.580;2023-06-14T04:34:37;8.80;;;2.55;;
35128;SDS011;21301;43.626;10.580;2023-06-14T04:37:05;9.88;;;2.88;;
35128;SDS011;21301;43.626;10.580;2023-06-14T04:39:36;5.25;;;2.80;;
35128;SDS011;21301;43.626;10.580;2023-06-14T04:42:02;7.07;;;2.47;;
35128;SDS011;21301;43.626;10.580;2023-06-14T04:44:29;9.90;;;3.80;;
35128;SDS011;21301;43.626;10.580;2023-06-14T04:46:58;10.70;;;6.40;;
35128;SDS011;21301;43.626;10.580;2023-06-14T04:49:24;9.90;;;4.22;;
35128;SDS011;21301;43.626;10.580;2023-06-14T04:51:52;10.80;;;4.43;;
35128;SDS011;21301;43.626;10.580;2023-06-14T04:54:24;7.87;;;3.00;;
35128;SDS011;21301;43.626;10.580;2023-06-14T04:56:51;7.93;;;3.05;;
35128;SDS011;21301;43.626;10.580;2023-06-14T04:59:21;13.10;;;3.00;;
35128;SDS011;21301;43.626;10.580;2023-06-14T05:01:50;6.43;;;2.70;;
35128;SDS011;21301;43.626;10.580;2023-06-14T05:04:17;10.48;;;3.25;;
35128;SDS011;21301;43.626;10.580;2023-06-14T05:06:44;5.57;;;2.75;;
35128;SDS011;21301;43.626;10.580;2023-06-14T05:09:16;6.15;;;3.15;;
35128;SDS011;21301;43.626;10.580;2023-06-14T05:11:43;8.77;;;2.80;;
35128;SDS011;21301;43.626;10.580;2023-06-14T05:14:10;7.15;;;3.20;;
35128;SDS011;21301;43.626;10.580;2023-06-14T05:16:37;7.93;;;3.35;;
35128;SDS011;21301;43.626;10.580;2023-06-14T05:19:04;6.00;;;3.67;;
35128;SDS011;21301;43.626;10.580;2023-06-14T05:21:30;12.65;;;4.97;;
35128;SDS011;21301;43.626;10.580;2023-06-14T05:23:57;13.50;;;4.60;;
35128;SDS011;21301;43.626;10.580;2023-06-14T05:26:22;7.30;;;4.18;;
35128;SDS011;21301;43.626;10.580;2023-06-14T05:28:50;8.25;;;4.57;;
35128;SDS011;21301;43.626;10.580;2023-06-14T05:31:17;8.48;;;5.15;;
35128;SDS011;21301;43.626;10.580;2023-06-14T05:33:43;7.28;;;3.17;;
35128;SDS011;21301;43.626;10.580;2023-06-14T05:36:09;11.27;;;4.32;;
35128;SDS011;21301;43.626;10.580;2023-06-14T05:38:35;7.53;;;3.97;;
35128;SDS011;21301;43.626;10.580;2023-06-14T05:41:01;7.05;;;4.63;;
35128;SDS011;21301;43.626;10.580;2023-06-14T05:43:27;11.38;;;4.70;;
35128;SDS011;21301;43.626;10.580;2023-06-14T05:45:53;9.02;;;3.63;;
35128;SDS011;21301;43.626;10.580;2023-06-14T05:48:18;9.05;;;4.38;;
35128;SDS011;21301;43.626;10.580;2023-06-14T05:50:44;9.95;;;4.72;;
35128;SDS011;21301;43.626;10.580;2023-06-14T05:53:10;8.98;;;4.80;;
35128;SDS011;21301;43.626;10.580;2023-06-14T05:55:36;7.18;;;4.03;;
35128;SDS011;21301;43.626;10.580;2023-06-14T05:58:02;8.38;;;3.88;;
35128;SDS011;21301;43.626;10.580;2023-06-14T06:00:30;15.23;;;4.95;;
35128;SDS011;21301;43.626;10.580;2023-06-14T06:02:56;6.72;;;3.70;;
35128;SDS011;21301;43.626;10.580;2023-06-14T06:05:22;8.02;;;3.50;;
35128;SDS011;21301;43.626;10.580;2023-06-14T06:07:49;7.32;;;3.67;;
35128;SDS011;21301;43.626;10.580;2023-06-14T06:10:15;8.00;;;4.35;;
35128;SDS011;21301;43.626;10.580;2023-06-14T06:12:41;6.28;;;3.63;;
35128;SDS011;21301;43.626;10.580;2023-06-14T06:15:07;7.68;;;4.65;;
35128;SDS011;21301;43.626;10.580;2023-06-14T06:17:37;12.10;;;4.97;;
35128;SDS011;21301;43.626;10.580;2023-06-14T06:20:04;8.63;;;4.50;;
35128;SDS011;21301;43.626;10.580;2023-06-14T06:22:33;10.30;;;5.03;;
35128;SDS011;21301;43.626;10.580;2023-06-14T06:24:59;9.20;;;4.68;;
35128;SDS011;21301;43.626;10.580;2023-06-14T06:27:25;9.52;;;4.97;;
35128;SDS011;21301;43.626;10.580;2023-06-14T06:29:51;8.07;;;4.45;;
35128;SDS011;21301;43.626;10.580;2023-06-14T06:32:18;7.55;;;4.97;;
35128;SDS011;21301;43.626;10.580;2023-06-14T06:34:44;8.10;;;4.40;;
35128;SDS011;21301;43.626;10.580;2023-06-14T06:37:16;7.78;;;3.70;;
35128;SDS011;21301;43.626;10.580;2023-06-14T06:39:41;8.20;;;4.10;;
35128;SDS011;21301;43.626;10.580;2023-06-14T06:42:08;9.65;;;3.85;;
35128;SDS011;21301;43.626;10.580;2023-06-14T06:44:36;7.45;;;4.10;;
35128;SDS011;21301;43.626;10.580;2023-06-14T06:47:02;10.05;;;4.40;;
35128;SDS011;21301;43.626;10.580;2023-06-14T06:49:28;6.85;;;3.75;;
35128;SDS011;21301;43.626;10.580;2023-06-14T06:52:00;9.05;;;4.13;;
35128;SDS011;21301;43.626;10.580;2023-06-14T06:54:31;11.02;;;4.07;;
35128;SDS011;21301;43.626;10.580;2023-06-14T06:56:57;9.25;;;5.43;;
35128;SDS011;21301;43.626;10.580;2023-06-14T06:59:24;11.35;;;7.18;;
35128;SDS011;21301;43.626;10.580;2023-06-14T07:01:50;8.10;;;4.28;;
35128;SDS011;21301;43.626;10.580;2023-06-14T07:04:16;6.60;;;4.25;;
35128;SDS011;21301;43.626;10.580;2023-06-14T07:06:42;11.15;;;4.57;;
35128;SDS011;21301;43.626;10.580;2023-06-14T07:09:08;9.38;;;5.93;;
35128;SDS011;21301;43.626;10.580;2023-06-14T07:11:40;11.95;;;6.00;;
35128;SDS011;21301;43.626;10.580;2023-06-14T07:14:07;7.07;;;4.03;;
35128;SDS011;21301;43.626;10.580;2023-06-14T07:16:33;10.02;;;4.07;;
35128;SDS011;21301;43.626;10.580;2023-06-14T07:18:59;7.10;;;4.15;;
35128;SDS011;21301;43.626;10.580;2023-06-14T07:21:25;7.70;;;4.13;;
35128;SDS011;21301;43.626;10.580;2023-06-14T07:23:54;6.82;;;4.10;;
35128;SDS011;21301;43.626;10.580;2023-06-14T07:26:20;9.55;;;4.50;;
35128;SDS011;21301;43.626;10.580;2023-06-14T07:28:47;10.43;;;3.83;;
35128;SDS011;21301;43.626;10.580;2023-06-14T07:31:14;10.75;;;4.50;;
35128;SDS011;21301;43.626;10.580;2023-06-14T07:33:41;6.43;;;3.20;;
35128;SDS011;21301;43.626;10.580;2023-06-14T07:36:07;9.65;;;4.00;;
35128;SDS011;21301;43.626;10.580;2023-06-14T07:38:33;9.32;;;5.22;;
35128;SDS011;21301;43.626;10.580;2023-06-14T07:41:00;6.78;;;3.65;;
35128;SDS011;21301;43.626;10.580;2023-06-14T07:43:26;7.18;;;3.15;;
35128;SDS011;21301;43.626;10.580;2023-06-14T07:45:51;7.03;;;3.20;;
35128;SDS011;21301;43.626;10.580;2023-06-14T07:48:17;7.13;;;3.20;;
35128;SDS011;21301;43.626;10.580;2023-06-14T07:50:43;8.02;;;3.20;;
35128;SDS011;21301;43.626;10.580;2023-06-14T07:53:09;6.78;;;3.28;;
35128;SDS011;21301;43.626;10.580;2023-06-14T07:55:35;7.22;;;2.83;;
35128;SDS011;21301;43.626;10.580;2023-06-14T07:58:02;6.13;;;3.05;;
35128;SDS011;21301;43.626;10.580;2023-06-14T08:00:28;5.40;;;3.00;;
35128;SDS011;21301;43.626;10.580;2023-06-14T08:02:54;5.00;;;2.20;;
35128;SDS011;21301;43.626;10.580;2023-06-14T08:05:24;7.30;;;2.90;;
35128;SDS011;21301;43.626;10.580;2023-06-14T08:07:51;4.20;;;1.98;;
35128;SDS011;21301;43.626;10.580;2023-06-14T08:10:17;5.63;;;2.58;;
35128;SDS011;21301;43.626;10.580;2023-06-14T08:12:43;5.25;;;2.33;;
35128;SDS011;21301;43.626;10.580;2023-06-14T08:15:09;4.90;;;2.25;;
35128;SDS011;21301;43.626;10.580;2023-06-14T08:17:35;4.15;;;2.60;;
35128;SDS011;21301;43.626;10.580;2023-06-14T08:20:01;7.32;;;2.97;;
35128;SDS011;21301;43.626;10.580;2023-06-14T08:22:29;4.07;;;2.05;;
35128;SDS011;21301;43.626;10.580;2023-06-14T08:24:59;4.90;;;2.13;;
35128;SDS011;21301;43.626;10.580;2023-06-14T08:27:26;4.07;;;1.95;;
35128;SDS011;21301;43.626;10.580;2023-06-14T08:29:52;4.80;;;2.05;;
35128;SDS011;21301;43.626;10.580;2023-06-14T08:32:18;4.38;;;2.17;;
35128;SDS011;21301;43.626;10.580;2023-06-14T08:34:44;4.85;;;1.80;;
35128;SDS011;21301;43.626;10.580;2023-06-14T08:37:10;6.93;;;2.63;;
35128;SDS011;21301;43.626;10.580;2023-06-14T08:39:35;3.97;;;1.55;;
35128;SDS011;21301;43.626;10.580;2023-06-14T08:42:02;4.97;;;2.45;;
35128;SDS011;21301;43.626;10.580;2023-06-14T08:44:29;3.75;;;2.08;;
35128;SDS011;21301;43.626;10.580;2023-06-14T08:46:55;4.70;;;2.45;;
35128;SDS011;21301;43.626;10.580;2023-06-14T08:49:25;4.43;;;2.30;;
35128;SDS011;21301;43.626;10.580;2023-06-14T08:51:57;3.70;;;1.70;;
35128;SDS011;21301;43.626;10.580;2023-06-14T08:54:27;3.97;;;2.08;;
35128;SDS011;21301;43.626;10.580;2023-06-14T08:56:56;5.60;;;2.05;;
35128;SDS011;21301;43.626;10.580;2023-06-14T08:59:27;6.13;;;2.40;;
35128;SDS011;21301;43.626;10.580;2023-06-14T09:01:54;5.28;;;1.80;;
35128;SDS011;21301;43.626;10.580;2023-06-14T09:04:23;3.28;;;1.90;;
35128;SDS011;21301;43.626;10.580;2023-06-14T09:06:55;4.05;;;2.33;;
35128;SDS011;21301;43.626;10.580;2023-06-14T09:09:21;3.75;;;2.10;;
35128;SDS011;21301;43.626;10.580;2023-06-14T09:11:53;4.10;;;2.28;;
35128;SDS011;21301;43.626;10.580;2023-06-14T09:14:21;4.03;;;2.13;;
35128;SDS011;21301;43.626;10.580;2023-06-14T09:16:51;4.13;;;2.15;;
35128;SDS011;21301;43.626;10.580;2023-06-14T09:19:21;3.55;;;2.15;;
35128;SDS011;21301;43.626;10.580;2023-06-14T09:21:50;5.68;;;2.10;;
35128;SDS011;21301;43.626;10.580;2023-06-14T09:24:18;4.10;;;2.00;;
35128;SDS011;21301;43.626;10.580;2023-06-14T09:26:48;5.30;;;2.40;;
35128;SDS011;21301;43.626;10.580;2023-06-14T09:29:16;4.05;;;1.92;;
35128;SDS011;21301;43.626;10.580;2023-06-14T09:31:42;4.10;;;1.90;;
35128;SDS011;21301;43.626;10.580;2023-06-14T09:34:08;3.35;;;1.63;;
35128;SDS011;21301;43.626;10.580;2023-06-14T09:36:34;3.58;;;1.75;;
35128;SDS011;21301;43.626;10.580;2023-06-14T09:39:02;4.88;;;2.30;;
35128;SDS011;21301;43.626;10.580;2023-06-14T09:41:34;3.10;;;1.70;;
35128;SDS011;21301;43.626;10.580;2023-06-14T09:44:08;4.70;;;1.83;;
35128;SDS011;21301;43.626;10.580;2023-06-14T09:46:35;4.13;;;1.50;;
35128;SDS011;21301;43.626;10.580;2023-06-14T09:49:02;2.97;;;1.60;;
35128;SDS011;21301;43.626;10.580;2023-06-14T09:51:29;3.03;;;1.50;;
35128;SDS011;21301;43.626;10.580;2023-06-14T09:53:58;3.83;;;2.10;;
35128;SDS011;21301;43.626;10.580;2023-06-14T09:56:29;4.10;;;1.52;;
35128;SDS011;21301;43.626;10.580;2023-06-14T09:59:06;4.32;;;2.05;;
35128;SDS011;21301;43.626;10.580;2023-06-14T10:01:35;3.88;;;1.70;;
35128;SDS011;21301;43.626;10.580;2023-06-14T10:04:06;4.35;;;2.50;;
35128;SDS011;21301;43.626;10.580;2023-06-14T10:06:35;4.43;;;1.60;;
35128;SDS011;21301;43.626;10.580;2023-06-14T10:09:03;4.50;;;2.13;;
35128;SDS011;21301;43.626;10.580;2023-06-14T10:11:32;4.05;;;1.88;;
35128;SDS011;21301;43.626;10.580;2023-06-14T10:14:00;3.53;;;1.55;;
35128;SDS011;21301;43.626;10.580;2023-06-14T10:16:33;3.60;;;1.55;;
35128;SDS011;21301;43.626;10.580;2023-06-14T10:19:07;3.88;;;2.03;;
35128;SDS011;21301;43.626;10.580;2023-06-14T10:24:12;3.22;;;1.23;;
35128;SDS011;21301;43.626;10.580;2023-06-14T10:26:53;4.20;;;2.10;;
35128;SDS011;21301;43.626;10.580;2023-06-14T10:29:22;4.30;;;1.40;;
35128;SDS011;21301;43.626;10.580;2023-06-14T10:31:54;3.30;;;1.50;;
35128;SDS011;21301;43.626;10.580;2023-06-14T10:34:31;4.78;;;1.50;;
35128;SDS011;21301;43.626;10.580;2023-06-14T10:37:04;4.97;;;1.70;;
35128;SDS011;21301;43.626;10.580;2023-06-14T10:39:41;3.53;;;1.40;;
35128;SDS011;21301;43.626;10.580;2023-06-14T10:42:09;3.55;;;1.55;;
35128;SDS011;21301;43.626;10.580;2023-06-14T10:44:39;4.75;;;1.67;;
35128;SDS011;21301;43.626;10.580;2023-06-14T10:47:38;3.83;;;1.60;;
35128;SDS011;21301;43.626;10.580;2023-06-14T10:50:07;4.68;;;1.65;;
35128;SDS011;21301;43.626;10.580;2023-06-14T10:52:34;2.97;;;1.40;;
35128;SDS011;21301;43.626;10.580;2023-06-14T10:57:40;4.25;;;1.75;;
35128;SDS011;21301;43.626;10.580;2023-06-14T11:00:16;4.10;;;1.30;;
35128;SDS011;21301;43.626;10.580;2023-06-14T11:05:53;2.88;;;1.10;;
35128;SDS011;21301;43.626;10.580;2023-06-14T11:11:25;4.13;;;1.10;;
35128;SDS011;21301;43.626;10.580;2023-06-14T11:13:59;2.85;;;1.30;;
35128;SDS011;21301;43.626;10.580;2023-06-14T11:16:26;2.47;;;1.27;;
35128;SDS011;21301;43.626;10.580;2023-06-14T11:18:53;2.97;;;1.40;;
35128;SDS011;21301;43.626;10.580;2023-06-14T11:21:19;2.85;;;1.27;;
35128;SDS011;21301;43.626;10.580;2023-06-14T11:23:49;3.20;;;1.50;;
35128;SDS011;21301;43.626;10.580;2023-06-14T11:26:23;2.97;;;1.50;;
35128;SDS011;21301;43.626;10.580;2023-06-14T11:29:00;3.15;;;1.30;;
35128;SDS011;21301;43.626;10.580;2023-06-14T11:31:27;2.70;;;1.20;;
35128;SDS011;21301;43.626;10.580;2023-06-14T11:33:54;4.07;;;1.42;;
35128;SDS011;21301;43.626;10.580;2023-06-14T11:36:21;3.03;;;1.48;;
35128;SDS011;21301;43.626;10.580;2023-06-14T11:38:47;3.63;;;1.48;;
35128;SDS011;21301;43.626;10.580;2023-06-14T11:41:13;3.10;;;1.50;;
35128;SDS011;21301;43.626;10.580;2023-06-14T11:43:39;3.65;;;1.55;;
35128;SDS011;21301;43.626;10.580;2023-06-14T11:46:11;2.67;;;1.20;;
35128;SDS011;21301;43.626;10.580;2023-06-14T11:48:40;3.28;;;1.00;;
35128;SDS011;21301;43.626;10.580;2023-06-14T11:51:07;2.28;;;1.13;;
35128;SDS011;21301;43.626;10.580;2023-06-14T11:53:33;2.92;;;1.52;;
35128;SDS011;21301;43.626;10.580;2023-06-14T11:55:59;3.50;;;1.30;;
35128;SDS011;21301;43.626;10.580;2023-06-14T11:58:26;2.70;;;1.27;;
35128;SDS011;21301;43.626;10.580;2023-06-14T12:00:54;3.50;;;2.28;;
35128;SDS011;21301;43.626;10.580;2023-06-14T12:03:24;2.72;;;1.30;;
35128;SDS011;21301;43.626;10.580;2023-06-14T12:05:50;4.10;;;1.50;;
35128;SDS011;21301;43.626;10.580;2023-06-14T12:08:47;2.88;;;1.30;;
35128;SDS011;21301;43.626;10.580;2023-06-14T12:11:14;3.33;;;1.52;;
35128;SDS011;21301;43.626;10.580;2023-06-14T12:13:42;3.08;;;1.30;;
35128;SDS011;21301;43.626;10.580;2023-06-14T12:16:09;3.10;;;1.40;;
35128;SDS011;21301;43.626;10.580;2023-06-14T12:18:36;2.70;;;1.30;;
35128;SDS011;21301;43.626;10.580;2023-06-14T12:21:07;2.67;;;1.25;;
35128;SDS011;21301;43.626;10.580;2023-06-14T12:23:54;3.53;;;1.75;;
35128;SDS011;21301;43.626;10.580;2023-06-14T12:26:19;2.83;;;1.40;;
35128;SDS011;21301;43.626;10.580;2023-06-14T12:28:46;2.95;;;1.33;;
35128;SDS011;21301;43.626;10.580;2023-06-14T12:31:13;4.45;;;1.42;;
35128;SDS011;21301;43.626;10.580;2023-06-14T12:33:40;3.10;;;1.50;;
35128;SDS011;21301;43.626;10.580;2023-06-14T12:36:07;3.95;;;1.50;;
35128;SDS011;21301;43.626;10.580;2023-06-14T12:38:35;3.22;;;1.38;;
35128;SDS011;21301;43.626;10.580;2023-06-14T12:41:01;3.17;;;1.35;;
35128;SDS011;21301;43.626;10.580;2023-06-14T12:43:27;3.33;;;1.48;;
35128;SDS011;21301;43.626;10.580;2023-06-14T12:45:53;3.70;;;1.50;;
35128;SDS011;21301;43.626;10.580;2023-06-14T12:48:19;4.68;;;1.38;;
35128;SDS011;21301;43.626;10.580;2023-06-14T12:50:45;3.42;;;1.50;;
35128;SDS011;21301;43.626;10.580;2023-06-14T12:53:11;2.28;;;1.05;;
35128;SDS011;21301;43.626;10.580;2023-06-14T12:55:37;5.13;;;1.50;;
35128;SDS011;21301;43.626;10.580;2023-06-14T12:58:03;2.75;;;1.50;;
35128;SDS011;21301;43.626;10.580;2023-06-14T13:00:29;4.18;;;1.75;;
35128;SDS011;21301;43.626;10.580;2023-06-14T13:02:55;6.53;;;1.98;;
35128;SDS011;21301;43.626;10.580;2023-06-14T13:05:22;6.05;;;2.13;;
35128;SDS011;21301;43.626;10.580;2023-06-14T13:07:48;9.50;;;3.53;;
35128;SDS011;21301;43.626;10.580;2023-06-14T13:10:14;5.40;;;2.75;;
35128;SDS011;21301;43.626;10.580;2023-06-14T13:12:40;4.47;;;2.45;;
35128;SDS011;21301;43.626;10.580;2023-06-14T13:15:06;4.82;;;2.95;;
35128;SDS011;21301;43.626;10.580;2023-06-14T13:17:33;5.28;;;3.00;;
35128;SDS011;21301;43.626;10.580;2023-06-14T13:20:06;8.88;;;2.80;;
35128;SDS011;21301;43.626;10.580;2023-06-14T13:22:33;5.93;;;3.35;;
35128;SDS011;21301;43.626;10.580;2023-06-14T13:24:59;6.50;;;3.53;;
35128;SDS011;21301;43.626;10.580;2023-06-14T13:27:26;4.90;;;3.05;;
35128;SDS011;21301;43.626;10.580;2023-06-14T13:29:52;8.68;;;3.17;;
35128;SDS011;21301;43.626;10.580;2023-06-14T13:32:18;5.85;;;2.70;;
35128;SDS011;21301;43.626;10.580;2023-06-14T13:34:45;5.28;;;2.78;;
35128;SDS011;21301;43.626;10.580;2023-06-14T13:37:11;6.55;;;2.42;;
35128;SDS011;21301;43.626;10.580;2023-06-14T13:39:37;4.60;;;2.20;;
35128;SDS011;21301;43.626;10.580;2023-06-14T13:42:03;6.20;;;1.98;;
35128;SDS011;21301;43.626;10.580;2023-06-14T13:44:29;6.32;;;2.58;;
35128;SDS011;21301;43.626;10.580;2023-06-14T13:46:54;3.30;;;1.38;;
35128;SDS011;21301;43.626;10.580;2023-06-14T13:49:20;4.93;;;2.15;;
35128;SDS011;21301;43.626;10.580;2023-06-14T13:51:46;10.38;;;2.85;;
35128;SDS011;21301;43.626;10.580;2023-06-14T13:54:12;12.30;;;3.50;;
35128;SDS011;21301;43.626;10.580;2023-06-14T13:56:40;10.57;;;3.75;;
35128;SDS011;21301;43.626;10.580;2023-06-14T13:59:06;10.65;;;3.10;;
35128;SDS011;21301;43.626;10.580;2023-06-14T14:01:32;7.18;;;2.22;;
35128;SDS011;21301;43.626;10.580;2023-06-14T14:03:58;4.90;;;1.63;;
35128;SDS011;21301;43.626;10.580;2023-06-14T14:06:26;12.77;;;2.10;;
35128;SDS011;21301;43.626;10.580;2023-06-14T14:08:52;5.30;;;1.98;;
35128;SDS011;21301;43.626;10.580;2023-06-14T14:11:18;10.63;;;1.90;;
35128;SDS011;21301;43.626;10.580;2023-06-14T14:13:44;9.85;;;1.67;;
35128;SDS011;21301;43.626;10.580;2023-06-14T14:16:10;4.40;;;1.60;;
35128;SDS011;21301;43.626;10.580;2023-06-14T14:18:36;4.53;;;1.70;;
35128;SDS011;21301;43.626;10.580;2023-06-14T14:21:02;4.03;;;1.63;;
35128;SDS011;21301;43.626;10.580;2023-06-14T14:23:28;5.68;;;1.55;;
35128;SDS011;21301;43.626;10.580;2023-06-14T14:25:54;6.43;;;1.60;;
35128;SDS011;21301;43.626;10.580;2023-06-14T14:28:20;4.25;;;1.40;;
35128;SDS011;21301;43.626;10.580;2023-06-14T14:30:46;4.70;;;1.48;;
35128;SDS011;21301;43.626;10.580;2023-06-14T14:33:13;5.63;;;1.10;;
35128;SDS011;21301;43.626;10.580;2023-06-14T14:35:41;2.13;;;0.90;;
35128;SDS011;21301;43.626;10.580;2023-06-14T14:38:09;3.88;;;1.25;;
35128;SDS011;21301;43.626;10.580;2023-06-14T14:40:35;4.00;;;1.35;;
35128;SDS011;21301;43.626;10.580;2023-06-14T14:43:01;6.90;;;1.75;;
35128;SDS011;21301;43.626;10.580;2023-06-14T14:45:26;4.05;;;1.58;;
35128;SDS011;21301;43.626;10.580;2023-06-14T14:47:52;5.50;;;1.40;;
35128;SDS011;21301;43.626;10.580;2023-06-14T14:50:18;5.93;;;1.85;;